createdAt,value
2022-11-12T00:00:59.060Z,16.07
2022-11-12T00:03:28.961Z,17.13
2022-11-12T00:05:55.827Z,17.17
2022-11-12T00:08:23.012Z,15.50
2022-11-12T00:10:50.023Z,15.93
2022-11-12T00:13:16.855Z,16.57
2022-11-12T00:15:43.716Z,15.90
2022-11-12T00:18:10.600Z,16.13
2022-11-12T00:20:37.587Z,16.60
2022-11-12T00:23:05.581Z,15.90
2022-11-12T00:25:33.657Z,16.10
2022-11-12T00:28:06.075Z,16.10
2022-11-12T00:30:33.208Z,17.13
2022-11-12T00:33:07.122Z,15.60
2022-11-12T00:35:34.483Z,17.97
2022-11-12T00:38:01.653Z,17.47
2022-11-12T00:40:28.911Z,18.40
2022-11-12T00:42:55.990Z,18.67
2022-11-12T00:45:23.389Z,18.17
2022-11-12T00:47:50.185Z,17.43
2022-11-12T00:50:17.305Z,17.70
2022-11-12T00:52:44.281Z,17.97
2022-11-12T00:55:11.321Z,18.30
2022-11-12T00:57:38.412Z,17.97
2022-11-12T01:00:15.492Z,17.30
2022-11-12T01:02:46.385Z,16.77
2022-11-12T01:05:16.587Z,16.40
2022-11-12T01:07:43.349Z,17.70
2022-11-12T01:10:10.908Z,16.50
2022-11-12T01:12:38.263Z,17.20
2022-11-12T01:15:06.560Z,17.60
2022-11-12T01:17:33.421Z,17.17
2022-11-12T01:20:00.121Z,16.17
2022-11-12T01:22:26.957Z,16.73
2022-11-12T01:24:53.808Z,16.43
2022-11-12T01:27:20.620Z,16.33
2022-11-12T01:29:47.472Z,16.47
2022-11-12T01:32:14.141Z,17.30
2022-11-12T01:34:40.930Z,15.57
2022-11-12T01:37:07.694Z,17.23
2022-11-12T01:39:34.385Z,17.50
2022-11-12T01:42:01.127Z,16.97
2022-11-12T01:44:31.722Z,16.20
2022-11-12T01:47:10.621Z,16.90
2022-11-12T01:49:51.885Z,16.23
2022-11-12T01:52:26.723Z,17.07
2022-11-12T01:54:56.941Z,16.30
2022-11-12T01:57:40.605Z,15.80
2022-11-12T02:00:11.053Z,16.43
2022-11-12T02:02:38.805Z,16.20
2022-11-12T02:05:11.767Z,16.30
2022-11-12T02:07:40.883Z,16.13
2022-11-12T02:10:09.639Z,16.73
2022-11-12T02:12:55.424Z,15.43
2022-11-12T02:15:24.623Z,15.90
2022-11-12T02:17:51.427Z,17.37
2022-11-12T02:20:18.851Z,16.87
2022-11-12T02:22:47.143Z,18.07
2022-11-12T02:25:20.047Z,17.13
2022-11-12T02:27:52.009Z,17.27
2022-11-12T02:30:40.141Z,18.30
2022-11-12T02:33:07.339Z,17.97
2022-11-12T02:35:34.111Z,19.23
2022-11-12T02:38:00.980Z,19.83
2022-11-12T02:40:27.801Z,18.87
2022-11-12T02:42:54.529Z,19.20
2022-11-12T02:45:21.740Z,18.73
2022-11-12T02:47:48.637Z,17.53
2022-11-12T02:50:16.214Z,18.20
2022-11-12T02:52:43.254Z,18.00
2022-11-12T02:55:11.790Z,17.80
2022-11-12T02:57:39.758Z,17.43
2022-11-12T03:00:11.978Z,17.13
2022-11-12T03:02:45.056Z,17.33
2022-11-12T03:05:13.323Z,16.77
2022-11-12T03:07:40.604Z,17.83
2022-11-12T03:10:07.620Z,16.40
2022-11-12T03:12:34.417Z,16.70
2022-11-12T03:15:01.139Z,16.43
2022-11-12T03:17:27.906Z,17.40
2022-11-12T03:19:54.701Z,17.07
2022-11-12T03:22:21.469Z,16.27
2022-11-12T03:24:48.381Z,16.30
2022-11-12T03:27:15.926Z,15.93
2022-11-12T03:29:42.638Z,15.80
2022-11-12T03:32:09.487Z,15.57
2022-11-12T03:34:38.880Z,16.20
2022-11-12T03:37:09.452Z,15.57
2022-11-12T03:39:36.699Z,15.87
2022-11-12T03:42:04.330Z,15.40
2022-11-12T03:44:32.345Z,14.17
2022-11-12T03:46:59.389Z,14.53
2022-11-12T03:49:26.146Z,14.03
2022-11-12T03:51:52.948Z,14.33
2022-11-12T03:54:20.216Z,14.03
2022-11-12T03:56:46.904Z,14.17
2022-11-12T03:59:13.608Z,14.83
2022-11-12T04:01:40.379Z,12.70
2022-11-12T04:04:07.083Z,13.57
2022-11-12T04:06:52.415Z,12.97
2022-11-12T04:09:19.219Z,12.43
2022-11-12T04:11:46.034Z,12.87
2022-11-12T04:14:12.886Z,12.67
2022-11-12T04:16:58.208Z,12.50
2022-11-12T04:19:43.415Z,11.27
2022-11-12T04:22:11.612Z,11.30
2022-11-12T04:24:58.957Z,11.20
2022-11-12T04:27:35.228Z,12.20
2022-11-12T04:30:18.711Z,11.20
2022-11-12T04:32:50.772Z,10.87
2022-11-12T04:35:19.196Z,10.00
2022-11-12T04:37:49.178Z,11.03
2022-11-12T04:40:45.641Z,10.20
2022-11-12T04:43:33.340Z,11.00
2022-11-12T04:46:01.809Z,10.50
2022-11-12T04:48:33.061Z,11.47
2022-11-12T04:51:03.085Z,10.60
2022-11-12T04:53:30.681Z,10.17
2022-11-12T04:55:59.027Z,10.70
2022-11-12T04:58:26.311Z,10.97
2022-11-12T05:00:53.443Z,10.07
2022-11-12T05:03:20.245Z,10.37
2022-11-12T05:05:47.068Z,10.50
2022-11-12T05:08:13.737Z,10.97
2022-11-12T05:10:40.424Z,10.13
2022-11-12T05:13:07.219Z,10.00
2022-11-12T05:15:37.033Z,9.93
2022-11-12T05:18:03.884Z,10.80
2022-11-12T05:20:30.600Z,10.53
2022-11-12T05:23:06.825Z,10.43
2022-11-12T05:25:35.790Z,9.67
2022-11-12T05:28:02.728Z,9.53
2022-11-12T05:30:36.751Z,10.83
2022-11-12T05:33:03.656Z,10.20
2022-11-12T05:35:30.312Z,9.67
2022-11-12T05:37:57.130Z,9.23
2022-11-12T05:40:23.975Z,10.23
2022-11-12T05:42:50.729Z,9.90
2022-11-12T05:45:17.667Z,9.93
2022-11-12T05:47:44.501Z,9.80
2022-11-12T05:50:11.339Z,9.30
2022-11-12T05:52:38.107Z,8.53
2022-11-12T05:55:05.238Z,8.63
2022-11-12T05:57:32.078Z,9.53
2022-11-12T05:59:58.863Z,9.37
2022-11-12T06:02:25.563Z,9.57
2022-11-12T06:04:52.302Z,9.10
2022-11-12T06:07:19.151Z,9.30
2022-11-12T06:09:45.850Z,9.07
2022-11-12T06:12:15.272Z,10.00
2022-11-12T06:14:42.005Z,9.90
2022-11-12T06:17:08.856Z,8.67
2022-11-12T06:19:35.545Z,9.00
2022-11-12T06:22:02.213Z,8.90
2022-11-12T06:24:35.131Z,9.43
2022-11-12T06:27:02.320Z,10.17
2022-11-12T06:29:30.174Z,9.57
2022-11-12T06:31:57.006Z,8.77
2022-11-12T06:34:23.694Z,8.67
2022-11-12T06:36:50.523Z,9.63
2022-11-12T06:39:17.589Z,9.13
2022-11-12T06:41:44.358Z,9.07
2022-11-12T06:44:11.303Z,9.67
2022-11-12T06:46:38.247Z,8.53
2022-11-12T06:49:05.051Z,9.53
2022-11-12T06:51:31.806Z,8.27
2022-11-12T06:53:58.657Z,8.13
2022-11-12T06:56:27.476Z,8.77
2022-11-12T06:58:54.191Z,9.20
2022-11-12T07:01:21.064Z,8.37
2022-11-12T07:03:52.800Z,9.17
2022-11-12T07:06:20.633Z,8.80
2022-11-12T07:08:49.238Z,9.10
2022-11-12T07:11:17.621Z,9.10
2022-11-12T07:13:45.394Z,9.17
2022-11-12T07:16:13.925Z,8.93
2022-11-12T07:18:40.670Z,8.73
2022-11-12T07:21:10.558Z,8.90
2022-11-12T07:23:37.914Z,8.30
2022-11-12T07:26:34.868Z,7.77
2022-11-12T07:29:01.648Z,8.53
2022-11-12T07:31:28.610Z,8.13
2022-11-12T07:33:55.497Z,7.80
2022-11-12T07:36:25.403Z,8.73
2022-11-12T07:38:53.949Z,9.20
2022-11-12T07:41:24.941Z,9.27
2022-11-12T07:43:53.778Z,9.43
2022-11-12T07:46:23.469Z,9.57
2022-11-12T07:48:50.662Z,10.07
2022-11-12T07:51:20.052Z,9.90
2022-11-12T07:54:00.728Z,10.03
2022-11-12T07:56:29.093Z,10.13
2022-11-12T07:58:58.905Z,9.37
2022-11-12T08:01:35.964Z,9.60
2022-11-12T08:04:06.211Z,9.53
2022-11-12T08:06:33.370Z,9.17
2022-11-12T08:09:02.464Z,10.63
2022-11-12T08:11:29.470Z,10.10
2022-11-12T08:13:56.446Z,10.70
2022-11-12T08:16:23.303Z,12.83
2022-11-12T08:18:52.574Z,12.47
2022-11-12T08:21:19.714Z,12.53
2022-11-12T08:23:46.995Z,10.97
2022-11-12T08:26:16.377Z,10.87
2022-11-12T08:28:43.390Z,10.90
2022-11-12T08:31:19.166Z,12.30
2022-11-12T08:33:46.431Z,10.40
2022-11-12T08:36:16.069Z,10.10
2022-11-12T08:38:46.578Z,10.77
2022-11-12T08:41:14.904Z,9.77
2022-11-12T08:43:42.210Z,9.23
2022-11-12T08:46:11.967Z,9.83
2022-11-12T08:48:41.832Z,9.60
2022-11-12T08:51:11.025Z,8.33
2022-11-12T08:53:40.685Z,9.50
2022-11-12T08:56:07.530Z,9.43
2022-11-12T08:58:34.239Z,8.57
2022-11-12T09:01:09.427Z,8.97
2022-11-12T09:03:36.633Z,9.63
2022-11-12T09:06:05.263Z,9.23
2022-11-12T09:08:34.188Z,8.53
2022-11-12T09:11:00.915Z,8.03
2022-11-12T09:13:27.876Z,8.23
2022-11-12T09:15:59.358Z,8.17
2022-11-12T09:18:26.381Z,7.90
2022-11-12T09:20:53.504Z,8.67
2022-11-12T09:23:20.372Z,8.43
2022-11-12T09:25:47.137Z,7.67
2022-11-12T09:28:18.452Z,8.27
2022-11-12T09:30:48.093Z,8.00
2022-11-12T09:33:16.539Z,8.10
2022-11-12T09:35:44.117Z,8.70
2022-11-12T09:38:11.027Z,8.90
2022-11-12T09:40:52.845Z,9.20
2022-11-12T09:43:35.215Z,9.47
2022-11-12T09:46:27.967Z,8.87
2022-11-12T09:49:06.406Z,7.93
2022-11-12T09:51:36.106Z,8.40
2022-11-12T09:54:14.117Z,7.83
2022-11-12T09:56:40.926Z,8.03
2022-11-12T09:59:13.947Z,7.83
2022-11-12T10:01:50.429Z,8.10
2022-11-12T10:04:41.435Z,7.80
2022-11-12T10:07:18.683Z,7.67
2022-11-12T10:09:58.443Z,8.23
2022-11-12T10:12:37.300Z,7.63
2022-11-12T10:15:39.308Z,7.50
2022-11-12T10:18:28.319Z,7.83
2022-11-12T10:21:01.198Z,7.67
2022-11-12T10:23:38.510Z,6.80
2022-11-12T10:26:16.379Z,6.77
2022-11-12T10:29:10.432Z,7.07
2022-11-12T10:31:37.588Z,6.80
2022-11-12T10:34:24.229Z,7.90
2022-11-12T10:37:02.731Z,6.90
2022-11-12T10:39:38.799Z,7.00
2022-11-12T10:42:10.514Z,7.00
2022-11-12T10:44:43.221Z,7.23
2022-11-12T10:47:30.544Z,6.53
2022-11-12T10:50:26.316Z,7.03
2022-11-12T10:52:59.105Z,7.03
2022-11-12T10:55:31.229Z,7.27
2022-11-12T10:58:09.778Z,7.97
2022-11-12T11:00:38.189Z,7.43
2022-11-12T11:03:19.957Z,7.17
2022-11-12T11:05:54.376Z,6.63
2022-11-12T11:08:42.790Z,6.33
2022-11-12T11:11:31.113Z,6.53
2022-11-12T11:14:22.536Z,6.67
2022-11-12T11:17:10.633Z,6.87
2022-11-12T11:19:40.081Z,7.17
2022-11-12T11:22:22.119Z,6.20
2022-11-12T11:24:57.736Z,5.93
2022-11-12T11:27:43.543Z,7.03
2022-11-12T11:30:28.719Z,5.97
2022-11-12T11:33:27.119Z,6.17
2022-11-12T11:35:59.647Z,5.80
2022-11-12T11:38:35.194Z,6.20
2022-11-12T11:41:32.630Z,6.67
2022-11-12T11:44:24.518Z,6.93
2022-11-12T11:47:16.170Z,7.07
2022-11-12T11:50:01.324Z,6.80
2022-11-12T11:52:39.989Z,7.33
2022-11-12T11:55:24.515Z,7.60
2022-11-12T11:58:18.772Z,6.77
2022-11-12T12:01:15.670Z,6.90
2022-11-12T12:04:19.342Z,7.20
2022-11-12T12:07:19.756Z,8.27
2022-11-12T12:10:09.439Z,7.70
2022-11-12T12:12:54.005Z,7.87
2022-11-12T12:15:32.471Z,8.40
2022-11-12T12:18:01.782Z,8.80
2022-11-12T12:20:59.134Z,8.87
2022-11-12T12:23:49.877Z,9.03
2022-11-12T12:26:33.062Z,9.00
2022-11-12T12:29:20.010Z,8.30
2022-11-12T12:31:55.841Z,9.20
2022-11-12T12:34:35.692Z,9.30
2022-11-12T12:37:10.103Z,9.97
2022-11-12T12:39:50.442Z,9.27
2022-11-12T12:42:43.419Z,8.27
2022-11-12T12:45:39.947Z,7.20
2022-11-12T12:48:18.573Z,7.57
2022-11-12T12:50:46.111Z,8.17
2022-11-12T12:53:31.923Z,8.40
2022-11-12T12:56:05.801Z,8.87
2022-11-12T12:58:47.267Z,8.37
2022-11-12T13:01:35.305Z,9.00
2022-11-12T13:04:04.539Z,8.73
2022-11-12T13:06:51.777Z,8.13
2022-11-12T13:09:18.727Z,7.93
2022-11-12T13:12:04.226Z,8.33
2022-11-12T13:14:36.800Z,8.77
2022-11-12T13:17:08.293Z,8.67
2022-11-12T13:19:35.058Z,8.23
2022-11-12T13:22:17.566Z,9.03
2022-11-12T13:25:05.618Z,8.87
2022-11-12T13:27:44.610Z,8.83
2022-11-12T13:30:31.331Z,8.17
2022-11-12T13:32:59.112Z,8.53
2022-11-12T13:35:31.166Z,8.47
2022-11-12T13:38:12.788Z,8.83
2022-11-12T13:40:44.459Z,7.97
2022-11-12T13:43:31.361Z,8.00
2022-11-12T13:46:07.230Z,8.33
2022-11-12T13:48:49.743Z,8.17
2022-11-12T13:51:36.366Z,8.63
2022-11-12T13:54:25.697Z,8.83
2022-11-12T13:56:52.507Z,8.63
2022-11-12T13:59:22.103Z,9.33
2022-11-12T14:01:50.062Z,8.10
2022-11-12T14:04:23.877Z,8.60
2022-11-12T14:06:59.698Z,8.23
2022-11-12T14:09:43.859Z,8.87
2022-11-12T14:12:19.523Z,8.00
2022-11-12T14:15:07.877Z,8.30
2022-11-12T14:17:57.632Z,8.97
2022-11-12T14:20:31.258Z,8.60
2022-11-12T14:23:15.823Z,8.27
2022-11-12T14:26:02.413Z,8.57
2022-11-12T14:28:34.610Z,8.70
2022-11-12T14:31:03.781Z,8.30
2022-11-12T14:33:32.496Z,9.00
2022-11-12T14:36:05.328Z,8.47
2022-11-12T14:38:55.364Z,9.00
2022-11-12T14:41:37.338Z,9.33
2022-11-12T14:44:13.192Z,9.70
2022-11-12T14:46:52.058Z,10.03
2022-11-12T14:49:28.361Z,9.70
2022-11-12T14:52:03.505Z,10.30
2022-11-12T14:54:34.773Z,10.33
2022-11-12T14:57:03.723Z,11.00
2022-11-12T14:59:32.408Z,10.93
2022-11-12T15:02:50.338Z,9.87
2022-11-12T15:05:01.919Z,10.03
2022-11-12T15:07:50.490Z,10.20
2022-11-12T15:10:40.346Z,11.10
2022-11-12T15:13:10.509Z,10.20
2022-11-12T15:16:03.247Z,12.13
2022-11-12T15:18:31.686Z,10.57
2022-11-12T15:21:20.976Z,10.93
2022-11-12T15:23:54.368Z,12.17
2022-11-12T15:26:33.250Z,12.17
2022-11-12T15:29:02.094Z,11.80
2022-11-12T15:31:31.019Z,11.87
2022-11-12T15:34:32.851Z,12.43
2022-11-12T15:37:04.875Z,13.13
2022-11-12T15:39:38.762Z,12.60
2022-11-12T15:42:27.715Z,11.83
2022-11-12T15:45:02.975Z,12.37
2022-11-12T15:47:33.253Z,11.00
2022-11-12T15:50:02.580Z,13.00
2022-11-12T15:52:29.354Z,12.23
2022-11-12T15:55:01.923Z,12.60
2022-11-12T15:57:31.496Z,12.90
2022-11-12T16:00:10.412Z,13.13
2022-11-12T16:02:37.223Z,13.27
2022-11-12T16:05:04.046Z,13.77
2022-11-12T16:07:31.083Z,13.30
2022-11-12T16:10:03.617Z,13.10
2022-11-12T16:12:30.380Z,13.07
2022-11-12T16:14:59.335Z,14.23
2022-11-12T16:17:26.488Z,13.53
2022-11-12T16:19:53.281Z,13.70
2022-11-12T16:22:20.004Z,13.73
2022-11-12T16:24:50.035Z,13.57
2022-11-12T16:27:17.555Z,13.90
2022-11-12T16:29:44.364Z,14.60
2022-11-12T16:32:14.149Z,13.63
2022-11-12T16:34:42.938Z,13.07
2022-11-12T16:37:12.599Z,14.77
2022-11-12T16:39:39.721Z,13.97
2022-11-12T16:42:08.058Z,14.83
2022-11-12T16:44:34.714Z,15.23
2022-11-12T16:47:03.532Z,13.80
2022-11-12T16:49:33.283Z,13.67
2022-11-12T16:52:04.437Z,14.53
2022-11-12T16:54:31.304Z,13.63
2022-11-12T16:56:58.111Z,14.00
2022-11-12T16:59:24.792Z,14.00
2022-11-12T17:01:51.632Z,13.37
2022-11-12T17:04:18.612Z,15.77
2022-11-12T17:06:45.554Z,15.33
2022-11-12T17:09:12.649Z,13.63
2022-11-12T17:11:39.390Z,14.60
2022-11-12T17:14:09.140Z,14.97
2022-11-12T17:16:35.826Z,14.87
2022-11-12T17:19:03.082Z,15.27
2022-11-12T17:21:30.269Z,16.57
2022-11-12T17:23:57.965Z,15.00
2022-11-12T17:26:24.850Z,14.47
2022-11-12T17:28:59.150Z,14.30
2022-11-12T17:31:26.952Z,14.03
2022-11-12T17:33:53.891Z,13.50
2022-11-12T17:36:23.146Z,14.37
2022-11-12T17:38:54.499Z,14.53
2022-11-12T17:41:23.593Z,13.80
2022-11-12T17:44:00.749Z,13.87
2022-11-12T17:46:28.331Z,14.30
2022-11-12T17:48:58.690Z,14.70
2022-11-12T17:51:27.357Z,14.67
2022-11-12T17:53:54.070Z,14.17
2022-11-12T17:56:23.318Z,14.50
2022-11-12T17:58:50.721Z,14.30
2022-11-12T18:01:23.613Z,14.57
2022-11-12T18:03:52.944Z,14.60
2022-11-12T18:06:22.547Z,13.27
2022-11-12T18:09:04.907Z,14.07
2022-11-12T18:11:40.970Z,14.27
2022-11-12T18:14:08.738Z,14.10
2022-11-12T18:16:35.741Z,13.83
2022-11-12T18:19:02.771Z,14.60
2022-11-12T18:21:29.713Z,14.87
2022-11-12T18:23:56.476Z,13.47
2022-11-12T18:26:23.345Z,14.33
2022-11-12T18:28:55.036Z,14.70
2022-11-12T18:31:23.182Z,14.87
2022-11-12T18:33:50.573Z,13.70
2022-11-12T18:36:25.938Z,14.23
2022-11-12T18:38:54.680Z,14.20
2022-11-12T18:41:26.899Z,14.40
2022-11-12T18:43:54.827Z,13.73
2022-11-12T18:46:22.034Z,14.27
2022-11-12T18:48:48.902Z,14.63
2022-11-12T18:51:19.875Z,14.50
2022-11-12T18:53:46.768Z,12.83
2022-11-12T18:56:18.887Z,14.23
2022-11-12T18:58:46.339Z,13.67
2022-11-12T19:01:20.768Z,13.73
2022-11-12T19:03:51.696Z,13.97
2022-11-12T19:06:22.267Z,13.00
2022-11-12T19:08:49.270Z,12.83
2022-11-12T19:11:21.904Z,12.43
2022-11-12T19:13:53.078Z,14.17
2022-11-12T19:16:22.632Z,12.90
2022-11-12T19:18:52.743Z,13.20
2022-11-12T19:21:25.390Z,13.70
2022-11-12T19:23:56.196Z,13.73
2022-11-12T19:26:23.952Z,12.73
2022-11-12T19:28:50.790Z,12.93
2022-11-12T19:31:20.297Z,12.93
2022-11-12T19:33:50.557Z,11.90
2022-11-12T19:36:20.634Z,12.57
2022-11-12T19:38:47.632Z,12.67
2022-11-12T19:41:19.738Z,13.77
2022-11-12T19:43:47.486Z,13.00
2022-11-12T19:46:14.826Z,13.30
2022-11-12T19:48:41.836Z,13.53
2022-11-12T19:51:10.063Z,13.13
2022-11-12T19:53:44.492Z,14.57
2022-11-12T19:56:13.856Z,13.43
2022-11-12T19:58:45.232Z,13.53
2022-11-12T20:01:14.358Z,13.47
2022-11-12T20:03:41.359Z,12.50
2022-11-12T20:06:11.272Z,13.00
2022-11-12T20:08:38.907Z,11.00
2022-11-12T20:11:06.071Z,11.70
2022-11-12T20:13:33.137Z,11.03
2022-11-12T20:16:05.036Z,11.30
2022-11-12T20:18:34.420Z,9.43
2022-11-12T20:21:04.778Z,10.33
2022-11-12T20:23:35.883Z,10.20
2022-11-12T20:26:05.969Z,10.03
2022-11-12T20:28:34.098Z,9.77
2022-11-12T20:31:03.089Z,11.00
2022-11-12T20:33:34.611Z,11.10
2022-11-12T20:36:07.594Z,11.43
2022-11-12T20:38:41.750Z,10.90
2022-11-12T20:41:15.607Z,11.50
2022-11-12T20:43:42.931Z,11.67
2022-11-12T20:46:12.299Z,12.37
2022-11-12T20:48:43.219Z,12.63
2022-11-12T20:51:29.169Z,10.53
2022-11-12T20:54:00.399Z,11.60
2022-11-12T20:56:29.807Z,11.40
2022-11-12T20:58:59.958Z,11.13
2022-11-12T21:01:28.905Z,11.53
2022-11-12T21:03:57.294Z,11.53
2022-11-12T21:06:26.356Z,11.23
2022-11-12T21:08:53.293Z,11.20
2022-11-12T21:11:24.812Z,12.50
2022-11-12T21:13:53.877Z,12.30
2022-11-12T21:16:20.833Z,12.10
2022-11-12T21:18:47.666Z,12.50
2022-11-12T21:21:17.491Z,12.07
2022-11-12T21:23:44.922Z,11.50
2022-11-12T21:26:14.526Z,11.00
2022-11-12T21:28:46.675Z,10.87
2022-11-12T21:31:16.249Z,11.20
2022-11-12T21:33:43.501Z,10.17
2022-11-12T21:36:16.149Z,11.03
2022-11-12T21:38:43.888Z,11.03
2022-11-12T21:41:15.542Z,11.90
2022-11-12T21:43:43.754Z,11.77
2022-11-12T21:46:15.961Z,11.03
2022-11-12T21:48:49.013Z,10.87
2022-11-12T21:51:20.238Z,11.50
2022-11-12T21:53:47.757Z,11.13
2022-11-12T21:56:17.335Z,11.40
2022-11-12T21:58:44.765Z,11.43
2022-11-12T22:01:11.461Z,10.63
2022-11-12T22:03:38.749Z,11.10
2022-11-12T22:06:06.744Z,11.17
2022-11-12T22:08:33.932Z,10.83
2022-11-12T22:11:08.898Z,10.90
2022-11-12T22:13:36.308Z,10.63
2022-11-12T22:16:13.338Z,10.93
2022-11-12T22:18:40.450Z,11.37
2022-11-12T22:21:12.671Z,9.50
2022-11-12T22:23:39.403Z,9.77
2022-11-12T22:26:09.905Z,10.03
2022-11-12T22:28:36.969Z,9.43
2022-11-12T22:31:11.773Z,8.73
2022-11-12T22:33:38.722Z,9.67
2022-11-12T22:36:08.992Z,9.00
2022-11-12T22:38:36.399Z,9.37
2022-11-12T22:41:08.406Z,9.43
2022-11-12T22:43:36.732Z,9.80
2022-11-12T22:46:08.083Z,8.87
2022-11-12T22:48:34.910Z,9.17
2022-11-12T22:51:04.122Z,7.93
2022-11-12T22:53:31.964Z,9.50
2022-11-12T22:56:08.040Z,9.80
2022-11-12T22:58:36.582Z,10.20
2022-11-12T23:01:05.531Z,9.40
2022-11-12T23:03:33.205Z,9.10
2022-11-12T23:06:03.459Z,9.93
2022-11-12T23:08:31.109Z,9.70
2022-11-12T23:11:06.271Z,9.03
2022-11-12T23:13:36.441Z,9.13
2022-11-12T23:16:10.776Z,9.00
2022-11-12T23:18:37.485Z,8.40
2022-11-12T23:21:07.022Z,9.20
2022-11-12T23:23:34.687Z,9.37
2022-11-12T23:26:14.444Z,8.63
2022-11-12T23:28:43.766Z,9.30
2022-11-12T23:31:14.246Z,8.47
2022-11-12T23:33:54.292Z,10.03
2022-11-12T23:36:22.078Z,9.30
2022-11-12T23:38:48.899Z,9.53
2022-11-12T23:41:18.541Z,8.47
2022-11-12T23:43:45.593Z,9.57
2022-11-12T23:46:12.877Z,9.37
2022-11-12T23:48:42.639Z,9.63
2022-11-12T23:51:18.055Z,8.70
2022-11-12T23:53:46.302Z,9.30
2022-11-12T23:56:16.403Z,8.37
2022-11-12T23:58:45.821Z,8.37
